createdAt,value
2022-08-27T00:02:01.189Z,59.52
2022-08-27T00:05:05.762Z,60.08
2022-08-27T00:08:13.480Z,60.09
2022-08-27T00:14:47.879Z,60.39
2022-08-27T00:17:50.645Z,60.25
2022-08-27T00:20:53.534Z,60.14
2022-08-27T00:23:56.374Z,60.37
2022-08-27T00:26:59.180Z,60.36
2022-08-27T00:30:02.381Z,60.44
2022-08-27T00:33:05.329Z,60.31
2022-08-27T00:36:08.637Z,60.36
2022-08-27T00:39:11.659Z,60.30
2022-08-27T00:42:15.051Z,60.38
2022-08-27T00:45:19.693Z,60.48
2022-08-27T00:48:24.149Z,60.58
2022-08-27T00:51:27.947Z,60.65
2022-08-27T00:54:30.990Z,60.71
2022-08-27T00:57:35.891Z,60.81
2022-08-27T01:00:38.915Z,61.18
2022-08-27T01:03:45.970Z,61.38
2022-08-27T01:06:48.925Z,61.47
2022-08-27T01:09:52.852Z,61.40
2022-08-27T01:12:56.153Z,61.57
2022-08-27T01:15:59.420Z,61.88
2022-08-27T01:19:04.588Z,62.16
2022-08-27T01:22:19.146Z,62.02
2022-08-27T01:25:26.157Z,62.13
2022-08-27T01:28:35.799Z,62.69
2022-08-27T01:31:40.621Z,72.60
2022-08-27T01:34:44.223Z,74.61
2022-08-27T01:37:49.326Z,71.26
2022-08-27T01:40:55.395Z,69.61
2022-08-27T01:43:58.344Z,67.57
2022-08-27T01:47:01.832Z,64.84
2022-08-27T01:50:06.534Z,62.62
2022-08-27T01:53:10.900Z,61.44
2022-08-27T01:56:13.971Z,60.23
2022-08-27T01:59:17.356Z,57.03
2022-08-27T02:02:20.696Z,55.91
2022-08-27T02:05:24.081Z,54.91
2022-08-27T02:08:27.035Z,55.59
2022-08-27T02:11:29.860Z,56.17
2022-08-27T02:14:32.835Z,56.80
2022-08-27T02:17:35.786Z,57.54
2022-08-27T02:20:38.692Z,59.48
2022-08-27T02:23:42.087Z,59.69
2022-08-27T02:26:45.062Z,62.54
2022-08-27T02:29:49.792Z,69.15
2022-08-27T02:32:53.154Z,69.80
2022-08-27T02:35:55.914Z,67.61
2022-08-27T02:38:58.718Z,64.57
2022-08-27T02:42:01.662Z,62.75
2022-08-27T02:45:05.883Z,61.78
2022-08-27T02:48:08.877Z,60.67
2022-08-27T02:51:12.003Z,58.86
2022-08-27T02:54:14.827Z,56.59
2022-08-27T02:57:17.528Z,57.11
2022-08-27T03:00:21.638Z,57.11
2022-08-27T03:03:24.540Z,57.22
2022-08-27T03:06:27.500Z,56.71
2022-08-27T03:09:30.484Z,56.72
2022-08-27T03:12:35.579Z,57.53
2022-08-27T03:15:38.395Z,57.85
2022-08-27T03:18:41.449Z,58.84
2022-08-27T03:21:44.852Z,59.41
2022-08-27T03:24:57.853Z,59.96
2022-08-27T03:28:00.768Z,60.91
2022-08-27T03:31:05.703Z,61.64
2022-08-27T03:34:09.097Z,62.47
2022-08-27T03:37:11.937Z,70.88
2022-08-27T03:40:15.505Z,72.68
2022-08-27T03:43:20.461Z,71.10
2022-08-27T03:46:23.244Z,69.01
2022-08-27T03:49:26.287Z,66.19
2022-08-27T03:52:29.232Z,64.50
2022-08-27T03:55:32.372Z,62.53
2022-08-27T03:58:36.056Z,60.69
2022-08-27T04:01:38.907Z,59.45
2022-08-27T04:04:41.694Z,56.52
2022-08-27T04:07:44.616Z,57.64
2022-08-27T04:10:47.821Z,57.57
2022-08-27T04:13:50.652Z,58.89
2022-08-27T04:16:54.564Z,59.08
2022-08-27T04:20:08.741Z,58.51
2022-08-27T04:23:22.096Z,58.75
2022-08-27T04:26:25.152Z,59.94
2022-08-27T04:29:28.718Z,60.88
2022-08-27T04:32:31.336Z,60.80
2022-08-27T04:35:37.344Z,60.71
2022-08-27T04:38:40.185Z,61.07
2022-08-27T04:41:43.470Z,62.75
2022-08-27T04:44:46.849Z,68.21
2022-08-27T04:47:49.837Z,68.04
2022-08-27T04:50:52.589Z,64.80
2022-08-27T04:53:55.659Z,62.72
2022-08-27T04:56:58.458Z,61.37
2022-08-27T05:00:01.291Z,61.12
2022-08-27T05:03:04.866Z,56.45
2022-08-27T05:06:07.975Z,55.31
2022-08-27T05:09:10.844Z,56.22
2022-08-27T05:12:17.231Z,56.24
2022-08-27T05:15:20.216Z,56.80
2022-08-27T05:18:23.214Z,57.83
2022-08-27T05:21:27.034Z,60.63
2022-08-27T05:24:29.855Z,59.68
2022-08-27T05:27:32.827Z,60.88
2022-08-27T05:30:36.897Z,61.20
2022-08-27T05:33:40.304Z,60.01
2022-08-27T05:36:48.778Z,60.40
2022-08-27T05:39:52.133Z,60.94
2022-08-27T05:42:55.091Z,60.99
2022-08-27T05:45:57.986Z,60.45
2022-08-27T05:49:01.358Z,60.90
2022-08-27T05:52:07.568Z,61.33
2022-08-27T05:55:11.948Z,61.35
2022-08-27T05:58:29.516Z,61.54
2022-08-27T06:01:45.029Z,61.64
2022-08-27T06:04:48.168Z,61.72
2022-08-27T06:07:51.032Z,61.52
2022-08-27T06:10:53.919Z,61.28
2022-08-27T06:13:57.220Z,61.32
2022-08-27T06:17:02.534Z,61.48
2022-08-27T06:20:05.982Z,61.29
2022-08-27T06:23:10.683Z,61.30
2022-08-27T06:26:14.214Z,60.80
2022-08-27T06:29:17.207Z,60.33
2022-08-27T06:32:20.483Z,59.92
2022-08-27T06:35:24.437Z,59.83
2022-08-27T06:38:27.686Z,59.70
2022-08-27T06:41:31.919Z,59.57
2022-08-27T06:44:34.770Z,58.99
2022-08-27T06:47:37.689Z,58.46
2022-08-27T06:50:41.187Z,58.01
2022-08-27T06:53:44.568Z,57.78
2022-08-27T06:56:49.111Z,57.56
2022-08-27T06:59:52.028Z,57.68
2022-08-27T07:02:55.701Z,57.65
2022-08-27T07:06:04.496Z,57.65
2022-08-27T07:09:09.025Z,57.48
2022-08-27T07:12:11.847Z,57.30
2022-08-27T07:15:14.765Z,56.80
2022-08-27T07:18:18.263Z,55.90
2022-08-27T07:21:21.395Z,56.09
2022-08-27T07:24:24.315Z,55.73
2022-08-27T07:27:27.187Z,55.82
2022-08-27T07:30:30.235Z,55.76
2022-08-27T07:33:33.359Z,55.61
2022-08-27T07:36:38.221Z,55.40
2022-08-27T07:39:41.058Z,55.13
2022-08-27T07:43:02.030Z,54.87
2022-08-27T07:46:04.931Z,53.90
2022-08-27T07:49:07.948Z,53.05
2022-08-27T07:52:11.719Z,53.08
2022-08-27T07:55:14.776Z,52.23
2022-08-27T07:58:20.117Z,51.92
2022-08-27T08:01:23.869Z,51.47
2022-08-27T08:04:26.964Z,51.68
2022-08-27T08:07:29.829Z,51.62
2022-08-27T08:10:35.661Z,51.00
2022-08-27T08:13:38.679Z,50.64
2022-08-27T08:16:41.554Z,50.33
2022-08-27T08:19:57.196Z,49.71
2022-08-27T08:23:09.703Z,49.16
2022-08-27T08:26:13.023Z,49.24
2022-08-27T08:29:18.284Z,49.44
2022-08-27T08:32:21.410Z,49.18
2022-08-27T08:35:24.161Z,48.28
2022-08-27T08:38:27.808Z,48.77
2022-08-27T08:41:38.405Z,48.49
2022-08-27T08:44:43.138Z,48.71
2022-08-27T08:47:50.771Z,47.40
2022-08-27T08:50:57.673Z,47.72
2022-08-27T08:54:03.474Z,47.41
2022-08-27T08:57:08.284Z,47.69
2022-08-27T09:00:13.824Z,47.08
2022-08-27T09:03:17.720Z,47.50
2022-08-27T09:06:24.612Z,42.53
2022-08-27T09:09:37.769Z,45.12
2022-08-27T09:12:41.017Z,45.24
2022-08-27T09:15:44.035Z,45.11
2022-08-27T09:18:52.349Z,45.36
2022-08-27T09:22:00.161Z,45.14
2022-08-27T09:25:07.152Z,44.98
2022-08-27T09:28:28.785Z,44.86
2022-08-27T09:31:35.990Z,45.01
2022-08-27T09:34:42.347Z,44.17
2022-08-27T09:37:46.985Z,43.57
2022-08-27T09:40:51.833Z,43.22
2022-08-27T09:43:58.961Z,42.42
2022-08-27T09:47:03.067Z,42.86
2022-08-27T09:50:08.586Z,41.78
2022-08-27T09:53:18.607Z,41.34
2022-08-27T09:56:23.583Z,41.13
2022-08-27T09:59:27.976Z,40.25
2022-08-27T10:02:31.058Z,41.02
2022-08-27T10:05:37.636Z,40.65
2022-08-27T10:08:42.162Z,40.73
2022-08-27T10:11:49.300Z,40.62
2022-08-27T10:14:57.547Z,40.80
2022-08-27T10:18:06.803Z,39.77
2022-08-27T10:21:11.953Z,39.79
2022-08-27T10:24:24.593Z,37.46
2022-08-27T10:27:35.359Z,36.53
2022-08-27T10:30:45.225Z,36.24
2022-08-27T10:33:54.576Z,35.92
2022-08-27T10:37:07.755Z,36.10
2022-08-27T10:40:15.652Z,34.84
2022-08-27T10:43:29.054Z,35.16
2022-08-27T10:46:50.213Z,34.98
2022-08-27T10:49:59.405Z,34.81
2022-08-27T10:53:21.862Z,35.30
2022-08-27T10:56:30.667Z,34.95
2022-08-27T10:59:38.172Z,34.10
2022-08-27T11:02:42.385Z,34.57
2022-08-27T11:05:47.265Z,34.64
2022-08-27T11:08:52.083Z,33.52
2022-08-27T11:15:26.860Z,33.27
2022-08-27T11:18:38.385Z,32.90
2022-08-27T11:21:45.030Z,32.96
2022-08-27T11:24:50.542Z,33.33
2022-08-27T11:27:54.976Z,32.69
2022-08-27T11:31:03.054Z,32.71
2022-08-27T11:34:11.271Z,32.90
2022-08-27T11:37:22.091Z,32.22
2022-08-27T11:40:43.009Z,31.92
2022-08-27T11:43:47.750Z,31.63
2022-08-27T11:46:53.529Z,30.87
2022-08-27T11:49:58.147Z,31.37
2022-08-27T11:53:02.154Z,30.90
2022-08-27T11:56:15.316Z,31.42
2022-08-27T11:59:22.902Z,31.41
2022-08-27T12:02:27.683Z,31.47
2022-08-27T12:05:35.372Z,31.13
2022-08-27T12:08:38.481Z,31.28
2022-08-27T12:11:48.336Z,31.31
2022-08-27T12:14:54.814Z,31.16
2022-08-27T12:18:02.932Z,30.40
2022-08-27T12:21:12.374Z,30.21
2022-08-27T12:24:24.687Z,30.51
2022-08-27T12:27:34.494Z,29.86
2022-08-27T12:30:38.334Z,29.80
2022-08-27T12:33:43.222Z,29.59
2022-08-27T12:36:48.302Z,29.46
2022-08-27T12:39:52.551Z,29.63
2022-08-27T12:43:06.084Z,29.95
2022-08-27T12:46:15.231Z,30.03
2022-08-27T12:49:37.770Z,29.48
2022-08-27T12:52:52.460Z,29.56
2022-08-27T12:56:01.018Z,29.07
2022-08-27T12:59:11.616Z,29.26
2022-08-27T13:02:23.405Z,28.89
2022-08-27T13:05:27.003Z,29.01
2022-08-27T13:08:30.845Z,28.95
2022-08-27T13:11:35.383Z,28.82
2022-08-27T13:14:41.084Z,28.78
2022-08-27T13:17:45.628Z,28.54
2022-08-27T13:20:53.235Z,28.85
2022-08-27T13:23:58.353Z,28.57
2022-08-27T13:27:03.155Z,28.65
2022-08-27T13:30:08.084Z,29.21
2022-08-27T13:33:14.783Z,28.76
2022-08-27T13:36:27.331Z,28.78
2022-08-27T13:39:34.970Z,28.39
2022-08-27T13:42:41.449Z,28.04
2022-08-27T13:45:48.291Z,28.26
2022-08-27T13:48:52.781Z,28.89
2022-08-27T13:52:00.121Z,29.22
2022-08-27T13:55:05.806Z,28.91
2022-08-27T13:58:18.341Z,28.64
2022-08-27T14:01:28.218Z,29.02
2022-08-27T14:04:36.704Z,28.89
2022-08-27T14:07:42.148Z,29.24
2022-08-27T14:10:46.647Z,29.20
2022-08-27T14:13:50.044Z,29.46
2022-08-27T14:16:56.942Z,28.37
2022-08-27T14:20:04.322Z,29.04
2022-08-27T14:23:09.534Z,28.81
2022-08-27T14:26:13.306Z,29.25
2022-08-27T14:29:17.876Z,28.60
2022-08-27T14:32:20.955Z,29.34
2022-08-27T14:35:25.257Z,29.55
2022-08-27T14:38:31.227Z,29.78
2022-08-27T14:41:34.070Z,29.06
2022-08-27T14:44:37.039Z,28.94
2022-08-27T14:47:41.206Z,29.21
2022-08-27T14:50:44.364Z,29.05
2022-08-27T14:53:47.178Z,28.63
2022-08-27T14:56:50.018Z,28.66
2022-08-27T14:59:52.774Z,28.20
2022-08-27T15:02:56.777Z,27.46
2022-08-27T15:05:59.571Z,27.20
2022-08-27T15:09:03.935Z,26.91
2022-08-27T15:12:07.068Z,27.37
2022-08-27T15:15:19.230Z,27.77
2022-08-27T15:18:22.680Z,27.27
2022-08-27T15:21:26.297Z,27.24
2022-08-27T15:24:40.122Z,27.65
2022-08-27T15:27:42.865Z,28.39
2022-08-27T15:30:45.871Z,28.82
2022-08-27T15:33:54.309Z,29.23
2022-08-27T15:36:57.341Z,29.41
2022-08-27T15:40:00.769Z,29.86
2022-08-27T15:43:05.415Z,30.31
2022-08-27T15:46:09.737Z,30.77
2022-08-27T15:49:14.812Z,30.98
2022-08-27T15:52:19.426Z,30.96
2022-08-27T15:55:25.341Z,31.11
2022-08-27T15:58:29.208Z,31.36
2022-08-27T16:01:33.491Z,31.54
2022-08-27T16:04:36.305Z,31.78
2022-08-27T16:07:39.186Z,32.22
2022-08-27T16:10:41.893Z,32.47
2022-08-27T16:13:44.489Z,33.22
2022-08-27T16:16:49.599Z,33.38
2022-08-27T16:19:52.518Z,33.88
2022-08-27T16:22:55.182Z,34.95
2022-08-27T16:25:58.217Z,35.34
2022-08-27T16:29:01.735Z,35.25
2022-08-27T16:32:04.499Z,36.17
2022-08-27T16:35:08.799Z,37.10
2022-08-27T16:38:15.811Z,36.71
2022-08-27T16:41:18.425Z,37.17
2022-08-27T16:44:21.214Z,37.65
2022-08-27T16:47:23.893Z,38.15
2022-08-27T16:50:34.284Z,38.54
2022-08-27T16:53:39.648Z,39.81
2022-08-27T16:56:43.170Z,40.05
2022-08-27T16:59:48.971Z,40.09
2022-08-27T17:02:51.905Z,40.30
2022-08-27T17:05:54.648Z,40.99
2022-08-27T17:08:58.918Z,41.52
2022-08-27T17:12:04.704Z,41.92
2022-08-27T17:15:09.235Z,42.40
2022-08-27T17:18:12.033Z,42.65
2022-08-27T17:21:15.707Z,42.80
2022-08-27T17:24:18.681Z,43.32
2022-08-27T17:27:21.660Z,44.09
2022-08-27T17:30:24.519Z,44.19
2022-08-27T17:33:28.983Z,44.34
2022-08-27T17:36:31.891Z,44.64
2022-08-27T17:39:35.958Z,45.58
2022-08-27T17:42:40.587Z,45.63
2022-08-27T17:45:43.441Z,45.87
2022-08-27T17:48:46.522Z,46.79
2022-08-27T17:51:50.404Z,46.69
2022-08-27T17:54:55.702Z,46.91
2022-08-27T17:57:58.484Z,47.79
2022-08-27T18:01:01.346Z,47.73
2022-08-27T18:04:05.000Z,48.60
2022-08-27T18:07:07.770Z,48.57
2022-08-27T18:10:11.864Z,49.63
2022-08-27T18:13:14.803Z,49.47
2022-08-27T18:16:22.148Z,49.55
2022-08-27T18:19:25.097Z,49.70
2022-08-27T18:22:27.982Z,50.26
2022-08-27T18:25:37.157Z,50.63
2022-08-27T18:28:40.968Z,50.91
2022-08-27T18:31:43.953Z,51.17
2022-08-27T18:34:46.772Z,51.60
2022-08-27T18:37:49.889Z,51.80
2022-08-27T18:40:53.883Z,52.23
2022-08-27T18:43:58.403Z,52.63
2022-08-27T18:47:01.202Z,52.73
2022-08-27T18:50:05.063Z,52.81
2022-08-27T18:53:10.066Z,53.08
2022-08-27T18:56:16.836Z,53.41
2022-08-27T18:59:24.959Z,53.60
2022-08-27T19:02:28.192Z,54.21
2022-08-27T19:05:33.539Z,54.64
2022-08-27T19:08:39.326Z,57.73
2022-08-27T19:11:42.158Z,56.25
2022-08-27T19:14:47.728Z,56.08
2022-08-27T19:17:53.522Z,55.83
2022-08-27T19:20:56.942Z,55.88
2022-08-27T19:23:59.710Z,56.34
2022-08-27T19:27:02.492Z,56.16
2022-08-27T19:30:07.191Z,56.54
2022-08-27T19:33:10.252Z,57.09
2022-08-27T19:36:15.955Z,58.26
2022-08-27T19:39:18.996Z,57.60
2022-08-27T19:42:21.859Z,59.72
2022-08-27T19:45:26.579Z,61.64
2022-08-27T19:48:29.305Z,62.36
2022-08-27T19:51:33.124Z,66.84
2022-08-27T19:54:51.641Z,66.76
2022-08-27T19:57:58.715Z,66.17
2022-08-27T20:01:01.752Z,65.41
2022-08-27T20:04:04.782Z,63.23
2022-08-27T20:07:07.953Z,62.94
2022-08-27T20:10:10.758Z,57.78
2022-08-27T20:13:13.703Z,55.92
2022-08-27T20:16:16.976Z,55.57
2022-08-27T20:19:22.808Z,55.91
2022-08-27T20:22:25.674Z,56.20
2022-08-27T20:25:28.431Z,56.41
2022-08-27T20:28:40.022Z,56.55
2022-08-27T20:31:43.292Z,58.39
2022-08-27T20:34:46.353Z,58.80
2022-08-27T20:37:49.495Z,59.53
2022-08-27T20:40:53.253Z,59.73
2022-08-27T20:43:58.524Z,59.76
2022-08-27T20:47:01.770Z,60.02
2022-08-27T20:50:05.330Z,60.89
2022-08-27T20:53:08.923Z,61.34
2022-08-27T20:56:11.672Z,61.65
2022-08-27T20:59:32.870Z,62.16
2022-08-27T21:02:35.672Z,67.48
2022-08-27T21:05:40.803Z,70.70
2022-08-27T21:08:43.679Z,72.35
2022-08-27T21:11:46.387Z,70.50
2022-08-27T21:14:49.521Z,68.78
2022-08-27T21:17:55.949Z,68.19
2022-08-27T21:20:59.027Z,66.67
2022-08-27T21:24:02.006Z,65.97
2022-08-27T21:27:05.124Z,64.97
2022-08-27T21:30:10.319Z,64.15
2022-08-27T21:33:13.450Z,63.69
2022-08-27T21:36:16.345Z,62.71
2022-08-27T21:39:19.025Z,62.76
2022-08-27T21:42:22.682Z,62.28
2022-08-27T21:45:25.671Z,60.26
2022-08-27T21:48:28.485Z,56.39
2022-08-27T21:51:31.820Z,57.20
2022-08-27T21:54:39.078Z,57.80
2022-08-27T21:57:41.892Z,59.08
2022-08-27T22:00:47.021Z,59.11
2022-08-27T22:03:50.355Z,59.66
2022-08-27T22:06:54.861Z,62.18
2022-08-27T22:09:57.807Z,67.20
2022-08-27T22:13:00.724Z,65.44
2022-08-27T22:16:04.061Z,69.19
2022-08-27T22:19:06.894Z,68.13
2022-08-27T22:22:10.687Z,69.20
2022-08-27T22:25:14.044Z,67.84
2022-08-27T22:28:19.734Z,68.26
2022-08-27T22:31:23.677Z,66.31
2022-08-27T22:34:26.437Z,66.87
2022-08-27T22:37:29.765Z,65.99
2022-08-27T22:40:33.136Z,59.06
2022-08-27T22:43:40.271Z,60.47
2022-08-27T22:46:43.226Z,61.46
2022-08-27T22:49:46.866Z,66.09
2022-08-27T22:52:49.671Z,64.14
2022-08-27T22:55:52.436Z,63.88
2022-08-27T22:58:55.310Z,62.78
2022-08-27T23:01:58.924Z,64.46
2022-08-27T23:05:06.290Z,64.91
2022-08-27T23:08:11.329Z,63.99
2022-08-27T23:11:15.403Z,66.01
2022-08-27T23:14:18.015Z,66.00
2022-08-27T23:17:20.997Z,66.90
2022-08-27T23:20:23.808Z,65.09
2022-08-27T23:23:29.700Z,65.11
2022-08-27T23:26:52.118Z,66.79
2022-08-27T23:29:55.529Z,65.58
2022-08-27T23:32:58.362Z,61.93
2022-08-27T23:36:01.193Z,62.28
2022-08-27T23:39:03.963Z,62.33
2022-08-27T23:42:07.320Z,63.84
2022-08-27T23:45:11.843Z,62.29
2022-08-27T23:48:14.877Z,65.81
2022-08-27T23:51:17.705Z,66.26
2022-08-27T23:54:21.228Z,65.04
2022-08-27T23:57:23.989Z,65.82
